アンタナナリボ の空港の天気 - METARとTAF

イヴァト空港(アンタナナリボ) ( FMMI / TNR ) - マダガスカル アンタナナリボ
飛行場実況気象(Metar)
観測時間08/14 23:00 EAT (08/14 20:00 UTC)
風向・風速南東 3m/s
視程10km以上
天気現象
少しの雲 雲底高度 700m
気温12℃
湿度77%
気圧1023hPa
METARFMMI 142000Z 13006KT 110V170 9999 FEW023 12/08 Q1023 NOSIG
過去の天気等 Google飛行場航空写真 Wunderground天気予報

過去48時間のMETAR

飛行場予報(TAF)
発表時間: -
TAF
FMMI 141700Z 1418/1524 12010KT 9999 FEW017 SCT020